sensor_id;sensor_type;location;lat;lon;timestamp;P1;durP1;ratioP1;P2;durP2;ratioP2
5297;SDS011;14738;42.668;23.250;2023-09-19T00:00:20;8.30;;;7.60;;
5297;SDS011;14738;42.668;23.250;2023-09-19T00:02:56;9.40;;;7.47;;
5297;SDS011;14738;42.668;23.250;2023-09-19T00:05:25;10.63;;;8.30;;
5297;SDS011;14738;42.668;23.250;2023-09-19T00:07:53;17.30;;;8.60;;
5297;SDS011;14738;42.668;23.250;2023-09-19T00:10:23;8.70;;;7.80;;
5297;SDS011;14738;42.668;23.250;2023-09-19T00:12:58;7.97;;;7.17;;
5297;SDS011;14738;42.668;23.250;2023-09-19T00:15:30;7.53;;;6.83;;
5297;SDS011;14738;42.668;23.250;2023-09-19T00:17:56;9.73;;;8.50;;
5297;SDS011;14738;42.668;23.250;2023-09-19T00:20:21;8.80;;;7.90;;
5297;SDS011;14738;42.668;23.250;2023-09-19T00:22:51;9.03;;;8.07;;
5297;SDS011;14738;42.668;23.250;2023-09-19T00:25:17;9.93;;;7.80;;
5297;SDS011;14738;42.668;23.250;2023-09-19T00:27:43;9.70;;;8.03;;
5297;SDS011;14738;42.668;23.250;2023-09-19T00:30:10;8.47;;;7.63;;
5297;SDS011;14738;42.668;23.250;2023-09-19T00:32:47;8.70;;;7.87;;
5297;SDS011;14738;42.668;23.250;2023-09-19T00:35:16;9.47;;;7.40;;
5297;SDS011;14738;42.668;23.250;2023-09-19T00:37:41;9.60;;;8.10;;
5297;SDS011;14738;42.668;23.250;2023-09-19T00:40:07;11.27;;;7.90;;
5297;SDS011;14738;42.668;23.250;2023-09-19T00:42:40;8.83;;;7.93;;
5297;SDS011;14738;42.668;23.250;2023-09-19T00:45:06;10.20;;;8.87;;
5297;SDS011;14738;42.668;23.250;2023-09-19T00:47:35;9.43;;;8.43;;
5297;SDS011;14738;42.668;23.250;2023-09-19T00:50:00;8.97;;;8.07;;
5297;SDS011;14738;42.668;23.250;2023-09-19T00:52:28;10.73;;;8.30;;
5297;SDS011;14738;42.668;23.250;2023-09-19T00:54:54;9.60;;;8.60;;
5297;SDS011;14738;42.668;23.250;2023-09-19T00:57:19;9.10;;;8.30;;
5297;SDS011;14738;42.668;23.250;2023-09-19T00:59:47;8.30;;;7.50;;
5297;SDS011;14738;42.668;23.250;2023-09-19T01:02:15;8.70;;;7.80;;
5297;SDS011;14738;42.668;23.250;2023-09-19T01:04:41;9.47;;;8.50;;
5297;SDS011;14738;42.668;23.250;2023-09-19T01:07:07;8.87;;;8.03;;
5297;SDS011;14738;42.668;23.250;2023-09-19T01:09:34;13.20;;;8.03;;
5297;SDS011;14738;42.668;23.250;2023-09-19T01:12:01;10.80;;;8.33;;
5297;SDS011;14738;42.668;23.250;2023-09-19T01:17:24;9.30;;;8.40;;
5297;SDS011;14738;42.668;23.250;2023-09-19T01:22:52;8.50;;;7.70;;
5297;SDS011;14738;42.668;23.250;2023-09-19T01:30:47;9.30;;;8.30;;
5297;SDS011;14738;42.668;23.250;2023-09-19T01:33:16;9.90;;;8.70;;
5297;SDS011;14738;42.668;23.250;2023-09-19T01:35:42;9.37;;;8.43;;
5297;SDS011;14738;42.668;23.250;2023-09-19T01:38:07;10.47;;;9.20;;
5297;SDS011;14738;42.668;23.250;2023-09-19T01:40:41;11.77;;;9.27;;
5297;SDS011;14738;42.668;23.250;2023-09-19T01:43:20;9.13;;;8.20;;
5297;SDS011;14738;42.668;23.250;2023-09-19T01:48:35;9.50;;;8.50;;
5297;SDS011;14738;42.668;23.250;2023-09-19T01:51:18;10.80;;;9.20;;
5297;SDS011;14738;42.668;23.250;2023-09-19T01:53:51;10.00;;;8.67;;
5297;SDS011;14738;42.668;23.250;2023-09-19T01:56:32;9.50;;;8.50;;
5297;SDS011;14738;42.668;23.250;2023-09-19T01:59:13;10.73;;;8.83;;
5297;SDS011;14738;42.668;23.250;2023-09-19T02:01:45;9.43;;;8.43;;
5297;SDS011;14738;42.668;23.250;2023-09-19T02:04:11;12.73;;;9.27;;
5297;SDS011;14738;42.668;23.250;2023-09-19T02:06:39;11.10;;;8.67;;
5297;SDS011;14738;42.668;23.250;2023-09-19T02:09:06;10.60;;;9.03;;
5297;SDS011;14738;42.668;23.250;2023-09-19T02:11:32;11.60;;;9.23;;
5297;SDS011;14738;42.668;23.250;2023-09-19T02:13:57;9.90;;;8.93;;
5297;SDS011;14738;42.668;23.250;2023-09-19T02:16:24;9.20;;;8.27;;
5297;SDS011;14738;42.668;23.250;2023-09-19T02:18:50;14.40;;;8.77;;
5297;SDS011;14738;42.668;23.250;2023-09-19T02:21:16;10.47;;;9.37;;
5297;SDS011;14738;42.668;23.250;2023-09-19T02:23:42;11.03;;;9.07;;
5297;SDS011;14738;42.668;23.250;2023-09-19T02:26:09;10.70;;;8.23;;
5297;SDS011;14738;42.668;23.250;2023-09-19T02:28:34;9.87;;;8.87;;
5297;SDS011;14738;42.668;23.250;2023-09-19T02:31:00;9.23;;;8.23;;
5297;SDS011;14738;42.668;23.250;2023-09-19T02:33:26;10.43;;;9.33;;
5297;SDS011;14738;42.668;23.250;2023-09-19T02:35:56;10.60;;;9.00;;
5297;SDS011;14738;42.668;23.250;2023-09-19T02:38:25;10.10;;;8.10;;
5297;SDS011;14738;42.668;23.250;2023-09-19T02:40:54;9.13;;;8.23;;
5297;SDS011;14738;42.668;23.250;2023-09-19T02:43:20;9.03;;;8.10;;
5297;SDS011;14738;42.668;23.250;2023-09-19T02:45:47;10.30;;;9.30;;
5297;SDS011;14738;42.668;23.250;2023-09-19T02:48:14;10.03;;;8.70;;
5297;SDS011;14738;42.668;23.250;2023-09-19T02:50:40;10.50;;;9.50;;
5297;SDS011;14738;42.668;23.250;2023-09-19T02:53:07;9.10;;;8.20;;
5297;SDS011;14738;42.668;23.250;2023-09-19T02:55:32;10.10;;;9.20;;
5297;SDS011;14738;42.668;23.250;2023-09-19T02:57:59;9.30;;;8.40;;
5297;SDS011;14738;42.668;23.250;2023-09-19T03:00:26;11.33;;;8.70;;
5297;SDS011;14738;42.668;23.250;2023-09-19T03:02:55;9.30;;;8.40;;
5297;SDS011;14738;42.668;23.250;2023-09-19T03:05:22;9.40;;;8.50;;
5297;SDS011;14738;42.668;23.250;2023-09-19T03:07:48;10.07;;;8.67;;
5297;SDS011;14738;42.668;23.250;2023-09-19T03:10:15;10.50;;;9.50;;
5297;SDS011;14738;42.668;23.250;2023-09-19T03:12:41;11.50;;;8.73;;
5297;SDS011;14738;42.668;23.250;2023-09-19T03:15:07;9.80;;;8.80;;
5297;SDS011;14738;42.668;23.250;2023-09-19T03:17:33;9.90;;;8.93;;
5297;SDS011;14738;42.668;23.250;2023-09-19T03:19:59;8.80;;;7.90;;
5297;SDS011;14738;42.668;23.250;2023-09-19T03:22:26;9.30;;;8.40;;
5297;SDS011;14738;42.668;23.250;2023-09-19T03:24:52;9.60;;;8.70;;
5297;SDS011;14738;42.668;23.250;2023-09-19T03:27:18;9.00;;;8.20;;
5297;SDS011;14738;42.668;23.250;2023-09-19T03:29:43;10.10;;;8.20;;
5297;SDS011;14738;42.668;23.250;2023-09-19T03:32:09;9.50;;;8.47;;
5297;SDS011;14738;42.668;23.250;2023-09-19T03:34:38;9.93;;;8.77;;
5297;SDS011;14738;42.668;23.250;2023-09-19T03:37:11;14.63;;;9.03;;
5297;SDS011;14738;42.668;23.250;2023-09-19T03:39:37;10.07;;;9.07;;
5297;SDS011;14738;42.668;23.250;2023-09-19T03:42:02;11.13;;;10.03;;
5297;SDS011;14738;42.668;23.250;2023-09-19T03:44:32;9.47;;;8.47;;
5297;SDS011;14738;42.668;23.250;2023-09-19T03:46:58;8.77;;;7.73;;
5297;SDS011;14738;42.668;23.250;2023-09-19T03:49:23;10.40;;;9.10;;
5297;SDS011;14738;42.668;23.250;2023-09-19T03:51:48;13.30;;;9.60;;
5297;SDS011;14738;42.668;23.250;2023-09-19T03:54:14;13.23;;;7.90;;
5297;SDS011;14738;42.668;23.250;2023-09-19T03:56:42;12.50;;;9.50;;
5297;SDS011;14738;42.668;23.250;2023-09-19T03:59:08;11.67;;;8.30;;
5297;SDS011;14738;42.668;23.250;2023-09-19T04:01:34;16.40;;;9.43;;
5297;SDS011;14738;42.668;23.250;2023-09-19T04:04:00;10.77;;;9.60;;
5297;SDS011;14738;42.668;23.250;2023-09-19T04:06:33;9.17;;;8.17;;
5297;SDS011;14738;42.668;23.250;2023-09-19T04:09:02;10.93;;;8.90;;
5297;SDS011;14738;42.668;23.250;2023-09-19T04:11:28;9.57;;;8.57;;
5297;SDS011;14738;42.668;23.250;2023-09-19T04:13:58;12.50;;;8.90;;
5297;SDS011;14738;42.668;23.250;2023-09-19T04:16:23;8.87;;;7.97;;
5297;SDS011;14738;42.668;23.250;2023-09-19T04:18:49;9.93;;;8.90;;
5297;SDS011;14738;42.668;23.250;2023-09-19T04:21:14;12.80;;;9.63;;
5297;SDS011;14738;42.668;23.250;2023-09-19T04:23:39;10.97;;;9.20;;
5297;SDS011;14738;42.668;23.250;2023-09-19T04:26:06;17.40;;;8.83;;
5297;SDS011;14738;42.668;23.250;2023-09-19T04:28:31;9.50;;;8.60;;
5297;SDS011;14738;42.668;23.250;2023-09-19T04:30:59;8.90;;;8.00;;
5297;SDS011;14738;42.668;23.250;2023-09-19T04:33:25;10.50;;;8.03;;
5297;SDS011;14738;42.668;23.250;2023-09-19T04:35:52;15.63;;;8.47;;
5297;SDS011;14738;42.668;23.250;2023-09-19T04:38:20;13.47;;;9.40;;
5297;SDS011;14738;42.668;23.250;2023-09-19T04:40:46;14.47;;;7.73;;
5297;SDS011;14738;42.668;23.250;2023-09-19T04:43:12;8.70;;;7.70;;
5297;SDS011;14738;42.668;23.250;2023-09-19T04:45:38;9.07;;;8.07;;
5297;SDS011;14738;42.668;23.250;2023-09-19T04:48:04;10.30;;;7.80;;
5297;SDS011;14738;42.668;23.250;2023-09-19T04:50:31;10.60;;;7.10;;
5297;SDS011;14738;42.668;23.250;2023-09-19T04:52:57;13.80;;;7.50;;
5297;SDS011;14738;42.668;23.250;2023-09-19T04:55:23;7.53;;;6.70;;
5297;SDS011;14738;42.668;23.250;2023-09-19T04:57:49;8.23;;;6.90;;
5297;SDS011;14738;42.668;23.250;2023-09-19T05:00:19;7.80;;;7.00;;
5297;SDS011;14738;42.668;23.250;2023-09-19T05:02:48;11.10;;;6.83;;
5297;SDS011;14738;42.668;23.250;2023-09-19T05:05:16;8.40;;;6.83;;
5297;SDS011;14738;42.668;23.250;2023-09-19T05:07:44;7.27;;;6.50;;
5297;SDS011;14738;42.668;23.250;2023-09-19T05:10:11;7.00;;;6.40;;
5297;SDS011;14738;42.668;23.250;2023-09-19T05:12:37;10.63;;;6.80;;
5297;SDS011;14738;42.668;23.250;2023-09-19T05:15:03;9.97;;;7.03;;
5297;SDS011;14738;42.668;23.250;2023-09-19T05:17:32;7.00;;;6.40;;
5297;SDS011;14738;42.668;23.250;2023-09-19T05:19:58;7.40;;;6.80;;
5297;SDS011;14738;42.668;23.250;2023-09-19T05:22:28;8.30;;;7.50;;
5297;SDS011;14738;42.668;23.250;2023-09-19T05:24:54;7.70;;;6.50;;
5297;SDS011;14738;42.668;23.250;2023-09-19T05:27:20;8.00;;;7.00;;
5297;SDS011;14738;42.668;23.250;2023-09-19T05:29:46;7.40;;;6.70;;
5297;SDS011;14738;42.668;23.250;2023-09-19T05:32:11;7.40;;;6.70;;
5297;SDS011;14738;42.668;23.250;2023-09-19T05:34:37;6.53;;;6.03;;
5297;SDS011;14738;42.668;23.250;2023-09-19T05:37:03;7.53;;;6.93;;
5297;SDS011;14738;42.668;23.250;2023-09-19T05:39:33;8.10;;;7.27;;
5297;SDS011;14738;42.668;23.250;2023-09-19T05:41:59;7.33;;;6.63;;
5297;SDS011;14738;42.668;23.250;2023-09-19T05:44:28;11.93;;;8.00;;
5297;SDS011;14738;42.668;23.250;2023-09-19T05:46:54;8.90;;;8.00;;
5297;SDS011;14738;42.668;23.250;2023-09-19T05:49:22;10.60;;;7.63;;
5297;SDS011;14738;42.668;23.250;2023-09-19T05:51:49;12.93;;;8.10;;
5297;SDS011;14738;42.668;23.250;2023-09-19T05:54:15;7.93;;;7.20;;
5297;SDS011;14738;42.668;23.250;2023-09-19T05:56:43;8.73;;;7.90;;
5297;SDS011;14738;42.668;23.250;2023-09-19T05:59:11;8.17;;;7.37;;
5297;SDS011;14738;42.668;23.250;2023-09-19T06:01:40;9.00;;;7.40;;
5297;SDS011;14738;42.668;23.250;2023-09-19T06:04:06;9.70;;;7.77;;
5297;SDS011;14738;42.668;23.250;2023-09-19T06:06:31;10.17;;;9.13;;
5297;SDS011;14738;42.668;23.250;2023-09-19T06:08:58;9.70;;;8.70;;
5297;SDS011;14738;42.668;23.250;2023-09-19T06:11:24;9.27;;;8.00;;
5297;SDS011;14738;42.668;23.250;2023-09-19T06:13:51;8.70;;;7.90;;
5297;SDS011;14738;42.668;23.250;2023-09-19T06:16:18;9.47;;;8.57;;
5297;SDS011;14738;42.668;23.250;2023-09-19T06:18:44;9.87;;;8.37;;
5297;SDS011;14738;42.668;23.250;2023-09-19T06:21:10;9.40;;;8.00;;
5297;SDS011;14738;42.668;23.250;2023-09-19T06:23:36;8.80;;;8.00;;
5297;SDS011;14738;42.668;23.250;2023-09-19T06:26:01;10.83;;;8.53;;
5297;SDS011;14738;42.668;23.250;2023-09-19T06:28:27;10.30;;;8.37;;
5297;SDS011;14738;42.668;23.250;2023-09-19T06:30:53;9.10;;;8.23;;
5297;SDS011;14738;42.668;23.250;2023-09-19T06:33:20;9.77;;;8.87;;
5297;SDS011;14738;42.668;23.250;2023-09-19T06:35:46;8.13;;;7.43;;
5297;SDS011;14738;42.668;23.250;2023-09-19T06:38:13;13.73;;;7.70;;
5297;SDS011;14738;42.668;23.250;2023-09-19T06:40:40;9.50;;;7.63;;
5297;SDS011;14738;42.668;23.250;2023-09-19T06:43:09;8.40;;;7.60;;
5297;SDS011;14738;42.668;23.250;2023-09-19T06:45:35;9.60;;;8.70;;
5297;SDS011;14738;42.668;23.250;2023-09-19T06:48:01;12.00;;;7.30;;
5297;SDS011;14738;42.668;23.250;2023-09-19T06:50:28;8.37;;;7.57;;
5297;SDS011;14738;42.668;23.250;2023-09-19T06:52:55;7.17;;;6.57;;
5297;SDS011;14738;42.668;23.250;2023-09-19T06:55:22;8.37;;;6.53;;
5297;SDS011;14738;42.668;23.250;2023-09-19T06:57:52;12.97;;;6.83;;
5297;SDS011;14738;42.668;23.250;2023-09-19T07:00:21;7.53;;;6.83;;
5297;SDS011;14738;42.668;23.250;2023-09-19T07:03:03;8.20;;;7.23;;
5297;SDS011;14738;42.668;23.250;2023-09-19T07:05:39;8.87;;;6.73;;
5297;SDS011;14738;42.668;23.250;2023-09-19T07:08:06;9.80;;;6.80;;
5297;SDS011;14738;42.668;23.250;2023-09-19T07:10:32;20.33;;;8.47;;
5297;SDS011;14738;42.668;23.250;2023-09-19T07:15:29;9.17;;;7.30;;
5297;SDS011;14738;42.668;23.250;2023-09-19T07:17:58;7.40;;;6.73;;
5297;SDS011;14738;42.668;23.250;2023-09-19T07:20:26;8.83;;;7.93;;
5297;SDS011;14738;42.668;23.250;2023-09-19T07:22:52;8.17;;;7.47;;
5297;SDS011;14738;42.668;23.250;2023-09-19T07:25:20;8.60;;;7.33;;
5297;SDS011;14738;42.668;23.250;2023-09-19T07:27:46;9.33;;;8.33;;
5297;SDS011;14738;42.668;23.250;2023-09-19T07:30:12;8.10;;;6.73;;
5297;SDS011;14738;42.668;23.250;2023-09-19T07:32:38;9.73;;;7.83;;
5297;SDS011;14738;42.668;23.250;2023-09-19T07:35:05;9.53;;;7.50;;
5297;SDS011;14738;42.668;23.250;2023-09-19T07:37:31;11.80;;;8.10;;
5297;SDS011;14738;42.668;23.250;2023-09-19T07:40:01;8.30;;;7.60;;
5297;SDS011;14738;42.668;23.250;2023-09-19T07:42:32;10.10;;;7.67;;
5297;SDS011;14738;42.668;23.250;2023-09-19T07:45:02;7.87;;;7.17;;
5297;SDS011;14738;42.668;23.250;2023-09-19T07:47:28;7.83;;;6.83;;
5297;SDS011;14738;42.668;23.250;2023-09-19T07:49:55;8.47;;;7.57;;
5297;SDS011;14738;42.668;23.250;2023-09-19T07:52:20;7.90;;;7.10;;
5297;SDS011;14738;42.668;23.250;2023-09-19T07:54:47;9.43;;;8.10;;
5297;SDS011;14738;42.668;23.250;2023-09-19T07:57:14;8.03;;;7.23;;
5297;SDS011;14738;42.668;23.250;2023-09-19T07:59:41;8.70;;;6.70;;
5297;SDS011;14738;42.668;23.250;2023-09-19T08:02:07;8.00;;;7.20;;
5297;SDS011;14738;42.668;23.250;2023-09-19T08:04:41;9.00;;;7.20;;
5297;SDS011;14738;42.668;23.250;2023-09-19T08:07:07;10.50;;;6.40;;
5297;SDS011;14738;42.668;23.250;2023-09-19T08:09:34;8.93;;;7.43;;
5297;SDS011;14738;42.668;23.250;2023-09-19T08:11:59;11.13;;;8.30;;
5297;SDS011;14738;42.668;23.250;2023-09-19T08:14:28;9.27;;;8.23;;
5297;SDS011;14738;42.668;23.250;2023-09-19T08:16:57;9.13;;;7.17;;
5297;SDS011;14738;42.668;23.250;2023-09-19T08:19:24;8.80;;;8.00;;
5297;SDS011;14738;42.668;23.250;2023-09-19T08:21:53;8.93;;;8.03;;
5297;SDS011;14738;42.668;23.250;2023-09-19T08:24:26;8.33;;;6.87;;
5297;SDS011;14738;42.668;23.250;2023-09-19T08:26:53;9.07;;;8.17;;
5297;SDS011;14738;42.668;23.250;2023-09-19T08:29:20;14.70;;;12.83;;
5297;SDS011;14738;42.668;23.250;2023-09-19T08:31:45;13.03;;;8.40;;
5297;SDS011;14738;42.668;23.250;2023-09-19T08:34:14;10.23;;;7.60;;
5297;SDS011;14738;42.668;23.250;2023-09-19T08:36:40;9.33;;;7.03;;
5297;SDS011;14738;42.668;23.250;2023-09-19T08:39:08;9.00;;;8.10;;
5297;SDS011;14738;42.668;23.250;2023-09-19T08:41:34;7.80;;;6.83;;
5297;SDS011;14738;42.668;23.250;2023-09-19T08:43:59;9.70;;;8.80;;
5297;SDS011;14738;42.668;23.250;2023-09-19T08:46:27;8.77;;;7.43;;
5297;SDS011;14738;42.668;23.250;2023-09-19T08:49:03;8.37;;;7.53;;
5297;SDS011;14738;42.668;23.250;2023-09-19T08:51:42;8.23;;;7.37;;
5297;SDS011;14738;42.668;23.250;2023-09-19T08:54:32;8.50;;;7.57;;
5297;SDS011;14738;42.668;23.250;2023-09-19T08:57:00;8.93;;;8.13;;
5297;SDS011;14738;42.668;23.250;2023-09-19T08:59:33;9.10;;;7.50;;
5297;SDS011;14738;42.668;23.250;2023-09-19T09:02:00;8.40;;;7.40;;
5297;SDS011;14738;42.668;23.250;2023-09-19T09:04:29;9.30;;;7.63;;
5297;SDS011;14738;42.668;23.250;2023-09-19T09:06:55;8.13;;;7.20;;
5297;SDS011;14738;42.668;23.250;2023-09-19T09:09:21;11.60;;;8.20;;
5297;SDS011;14738;42.668;23.250;2023-09-19T09:11:48;9.40;;;8.60;;
5297;SDS011;14738;42.668;23.250;2023-09-19T09:14:18;12.43;;;7.40;;
5297;SDS011;14738;42.668;23.250;2023-09-19T09:16:44;7.63;;;6.67;;
5297;SDS011;14738;42.668;23.250;2023-09-19T09:19:10;9.20;;;7.87;;
5297;SDS011;14738;42.668;23.250;2023-09-19T09:21:37;7.40;;;6.70;;
5297;SDS011;14738;42.668;23.250;2023-09-19T09:26:55;10.87;;;7.83;;
5297;SDS011;14738;42.668;23.250;2023-09-19T09:29:44;7.97;;;7.13;;
5297;SDS011;14738;42.668;23.250;2023-09-19T09:32:28;10.50;;;9.60;;
5297;SDS011;14738;42.668;23.250;2023-09-19T09:35:02;7.77;;;7.00;;
5297;SDS011;14738;42.668;23.250;2023-09-19T09:37:34;7.73;;;6.93;;
5297;SDS011;14738;42.668;23.250;2023-09-19T09:40:03;8.17;;;7.43;;
5297;SDS011;14738;42.668;23.250;2023-09-19T09:42:50;8.27;;;7.40;;
5297;SDS011;14738;42.668;23.250;2023-09-19T09:45:23;7.63;;;6.80;;
5297;SDS011;14738;42.668;23.250;2023-09-19T09:47:58;7.20;;;6.47;;
5297;SDS011;14738;42.668;23.250;2023-09-19T09:56:01;8.03;;;5.83;;
5297;SDS011;14738;42.668;23.250;2023-09-19T09:58:31;7.97;;;7.17;;
5297;SDS011;14738;42.668;23.250;2023-09-19T10:01:24;10.90;;;6.73;;
5297;SDS011;14738;42.668;23.250;2023-09-19T10:03:56;8.90;;;6.63;;
5297;SDS011;14738;42.668;23.250;2023-09-19T10:06:23;6.67;;;5.97;;
5297;SDS011;14738;42.668;23.250;2023-09-19T10:09:04;7.70;;;6.33;;
5297;SDS011;14738;42.668;23.250;2023-09-19T10:11:48;7.53;;;6.73;;
5297;SDS011;14738;42.668;23.250;2023-09-19T10:14:29;7.67;;;6.87;;
5297;SDS011;14738;42.668;23.250;2023-09-19T10:16:58;7.87;;;7.07;;
5297;SDS011;14738;42.668;23.250;2023-09-19T10:22:11;6.83;;;6.23;;
5297;SDS011;14738;42.668;23.250;2023-09-19T10:24:45;8.60;;;6.37;;
5297;SDS011;14738;42.668;23.250;2023-09-19T10:27:12;6.63;;;5.90;;
5297;SDS011;14738;42.668;23.250;2023-09-19T10:29:45;7.00;;;6.40;;
5297;SDS011;14738;42.668;23.250;2023-09-19T10:32:15;8.20;;;6.60;;
5297;SDS011;14738;42.668;23.250;2023-09-19T10:34:44;10.07;;;6.40;;
5297;SDS011;14738;42.668;23.250;2023-09-19T10:37:12;7.50;;;6.77;;
5297;SDS011;14738;42.668;23.250;2023-09-19T10:39:39;10.47;;;6.47;;
5297;SDS011;14738;42.668;23.250;2023-09-19T10:42:06;7.53;;;6.73;;
5297;SDS011;14738;42.668;23.250;2023-09-19T10:44:35;6.90;;;6.30;;
5297;SDS011;14738;42.668;23.250;2023-09-19T10:47:09;12.93;;;6.40;;
5297;SDS011;14738;42.668;23.250;2023-09-19T10:49:42;7.33;;;6.67;;
5297;SDS011;14738;42.668;23.250;2023-09-19T10:52:11;6.97;;;6.37;;
5297;SDS011;14738;42.668;23.250;2023-09-19T10:54:44;8.43;;;6.23;;
5297;SDS011;14738;42.668;23.250;2023-09-19T10:57:20;7.03;;;6.40;;
5297;SDS011;14738;42.668;23.250;2023-09-19T11:05:42;10.13;;;6.33;;
5297;SDS011;14738;42.668;23.250;2023-09-19T11:08:08;5.97;;;5.47;;
5297;SDS011;14738;42.668;23.250;2023-09-19T11:10:44;7.37;;;6.57;;
5297;SDS011;14738;42.668;23.250;2023-09-19T11:26:47;7.40;;;6.73;;
5297;SDS011;14738;42.668;23.250;2023-09-19T11:31:56;9.20;;;6.07;;
5297;SDS011;14738;42.668;23.250;2023-09-19T11:39:36;7.33;;;6.33;;
5297;SDS011;14738;42.668;23.250;2023-09-19T11:42:17;6.37;;;5.77;;
5297;SDS011;14738;42.668;23.250;2023-09-19T11:48:14;6.60;;;6.10;;
5297;SDS011;14738;42.668;23.250;2023-09-19T11:50:44;6.87;;;6.17;;
5297;SDS011;14738;42.668;23.250;2023-09-19T11:53:12;7.47;;;6.70;;
5297;SDS011;14738;42.668;23.250;2023-09-19T11:55:40;7.33;;;6.73;;
5297;SDS011;14738;42.668;23.250;2023-09-19T11:58:10;6.00;;;5.37;;
5297;SDS011;14738;42.668;23.250;2023-09-19T12:00:39;7.33;;;5.80;;
5297;SDS011;14738;42.668;23.250;2023-09-19T12:03:09;7.20;;;6.60;;
5297;SDS011;14738;42.668;23.250;2023-09-19T12:05:36;8.20;;;6.30;;
5297;SDS011;14738;42.668;23.250;2023-09-19T12:08:02;6.93;;;5.70;;
5297;SDS011;14738;42.668;23.250;2023-09-19T12:10:34;8.27;;;6.00;;
5297;SDS011;14738;42.668;23.250;2023-09-19T12:13:09;6.90;;;6.20;;
5297;SDS011;14738;42.668;23.250;2023-09-19T12:15:39;12.17;;;6.97;;
5297;SDS011;14738;42.668;23.250;2023-09-19T12:18:05;10.90;;;6.17;;
5297;SDS011;14738;42.668;23.250;2023-09-19T12:20:43;6.03;;;5.53;;
5297;SDS011;14738;42.668;23.250;2023-09-19T12:23:15;5.97;;;5.37;;
5297;SDS011;14738;42.668;23.250;2023-09-19T12:25:45;9.77;;;6.33;;
5297;SDS011;14738;42.668;23.250;2023-09-19T12:28:17;6.90;;;6.10;;
5297;SDS011;14738;42.668;23.250;2023-09-19T12:30:43;9.23;;;6.30;;
5297;SDS011;14738;42.668;23.250;2023-09-19T12:33:18;6.70;;;6.13;;
5297;SDS011;14738;42.668;23.250;2023-09-19T12:35:45;6.87;;;6.17;;
5297;SDS011;14738;42.668;23.250;2023-09-19T12:38:10;7.70;;;6.03;;
5297;SDS011;14738;42.668;23.250;2023-09-19T12:40:37;11.50;;;6.20;;
5297;SDS011;14738;42.668;23.250;2023-09-19T12:43:07;6.33;;;5.83;;
5297;SDS011;14738;42.668;23.250;2023-09-19T12:45:34;6.63;;;5.93;;
5297;SDS011;14738;42.668;23.250;2023-09-19T12:48:18;8.30;;;7.60;;
5297;SDS011;14738;42.668;23.250;2023-09-19T12:51:10;10.57;;;5.50;;
5297;SDS011;14738;42.668;23.250;2023-09-19T12:53:38;7.20;;;5.20;;
5297;SDS011;14738;42.668;23.250;2023-09-19T12:56:15;6.63;;;6.03;;
5297;SDS011;14738;42.668;23.250;2023-09-19T12:58:57;6.33;;;5.83;;
5297;SDS011;14738;42.668;23.250;2023-09-19T13:01:26;6.40;;;5.80;;
5297;SDS011;14738;42.668;23.250;2023-09-19T13:06:53;8.13;;;6.20;;
5297;SDS011;14738;42.668;23.250;2023-09-19T13:09:20;6.67;;;6.00;;
5297;SDS011;14738;42.668;23.250;2023-09-19T13:11:46;9.70;;;5.87;;
5297;SDS011;14738;42.668;23.250;2023-09-19T13:14:17;7.00;;;6.23;;
5297;SDS011;14738;42.668;23.250;2023-09-19T13:16:54;12.53;;;6.10;;
5297;SDS011;14738;42.668;23.250;2023-09-19T13:19:41;7.00;;;6.30;;
5297;SDS011;14738;42.668;23.250;2023-09-19T13:25:01;5.87;;;5.37;;
5297;SDS011;14738;42.668;23.250;2023-09-19T13:27:29;9.70;;;5.73;;
5297;SDS011;14738;42.668;23.250;2023-09-19T13:29:54;6.27;;;5.77;;
5297;SDS011;14738;42.668;23.250;2023-09-19T13:32:20;6.07;;;5.43;;
5297;SDS011;14738;42.668;23.250;2023-09-19T13:34:45;5.77;;;5.33;;
5297;SDS011;14738;42.668;23.250;2023-09-19T13:37:10;6.30;;;5.80;;
5297;SDS011;14738;42.668;23.250;2023-09-19T13:39:38;6.03;;;5.53;;
5297;SDS011;14738;42.668;23.250;2023-09-19T13:42:07;5.97;;;5.50;;
5297;SDS011;14738;42.668;23.250;2023-09-19T13:44:37;6.00;;;5.50;;
5297;SDS011;14738;42.668;23.250;2023-09-19T13:47:03;6.43;;;5.73;;
5297;SDS011;14738;42.668;23.250;2023-09-19T13:49:34;8.43;;;5.90;;
5297;SDS011;14738;42.668;23.250;2023-09-19T13:52:00;5.70;;;5.20;;
5297;SDS011;14738;42.668;23.250;2023-09-19T13:54:28;6.27;;;5.77;;
5297;SDS011;14738;42.668;23.250;2023-09-19T13:56:53;7.20;;;5.00;;
5297;SDS011;14738;42.668;23.250;2023-09-19T13:59:19;6.30;;;5.70;;
5297;SDS011;14738;42.668;23.250;2023-09-19T14:01:46;8.50;;;5.43;;
5297;SDS011;14738;42.668;23.250;2023-09-19T14:04:11;5.40;;;5.00;;
5297;SDS011;14738;42.668;23.250;2023-09-19T14:06:37;8.13;;;6.07;;
5297;SDS011;14738;42.668;23.250;2023-09-19T14:09:02;6.70;;;5.13;;
5297;SDS011;14738;42.668;23.250;2023-09-19T14:11:29;6.43;;;5.83;;
5297;SDS011;14738;42.668;23.250;2023-09-19T14:13:54;6.27;;;5.70;;
5297;SDS011;14738;42.668;23.250;2023-09-19T14:16:20;5.97;;;5.47;;
5297;SDS011;14738;42.668;23.250;2023-09-19T14:18:47;7.10;;;5.00;;
5297;SDS011;14738;42.668;23.250;2023-09-19T14:21:13;5.83;;;5.37;;
5297;SDS011;14738;42.668;23.250;2023-09-19T14:23:39;5.33;;;4.93;;
5297;SDS011;14738;42.668;23.250;2023-09-19T14:26:06;5.90;;;5.17;;
5297;SDS011;14738;42.668;23.250;2023-09-19T14:28:33;7.17;;;5.93;;
5297;SDS011;14738;42.668;23.250;2023-09-19T14:31:05;5.73;;;5.33;;
5297;SDS011;14738;42.668;23.250;2023-09-19T14:33:32;6.83;;;5.53;;
5297;SDS011;14738;42.668;23.250;2023-09-19T14:35:57;6.10;;;5.60;;
5297;SDS011;14738;42.668;23.250;2023-09-19T14:38:22;6.73;;;5.67;;
5297;SDS011;14738;42.668;23.250;2023-09-19T14:40:48;10.90;;;6.00;;
5297;SDS011;14738;42.668;23.250;2023-09-19T14:43:15;6.17;;;5.57;;
5297;SDS011;14738;42.668;23.250;2023-09-19T14:45:40;6.07;;;5.57;;
5297;SDS011;14738;42.668;23.250;2023-09-19T14:48:06;7.40;;;6.67;;
5297;SDS011;14738;42.668;23.250;2023-09-19T14:50:32;6.80;;;6.20;;
5297;SDS011;14738;42.668;23.250;2023-09-19T14:52:58;8.57;;;6.30;;
5297;SDS011;14738;42.668;23.250;2023-09-19T14:55:26;6.17;;;5.20;;
5297;SDS011;14738;42.668;23.250;2023-09-19T14:57:54;8.00;;;7.30;;
5297;SDS011;14738;42.668;23.250;2023-09-19T15:00:21;6.67;;;6.07;;
5297;SDS011;14738;42.668;23.250;2023-09-19T15:02:48;12.03;;;7.10;;
5297;SDS011;14738;42.668;23.250;2023-09-19T15:05:15;10.10;;;9.10;;
5297;SDS011;14738;42.668;23.250;2023-09-19T15:07:41;10.57;;;9.43;;
5297;SDS011;14738;42.668;23.250;2023-09-19T15:10:06;12.73;;;11.43;;
5297;SDS011;14738;42.668;23.250;2023-09-19T15:12:35;10.10;;;9.20;;
5297;SDS011;14738;42.668;23.250;2023-09-19T15:15:02;13.70;;;12.40;;
5297;SDS011;14738;42.668;23.250;2023-09-19T15:17:30;8.70;;;7.80;;
5297;SDS011;14738;42.668;23.250;2023-09-19T15:19:56;8.10;;;7.40;;
5297;SDS011;14738;42.668;23.250;2023-09-19T15:22:21;7.63;;;6.93;;
5297;SDS011;14738;42.668;23.250;2023-09-19T15:24:47;8.70;;;7.80;;
5297;SDS011;14738;42.668;23.250;2023-09-19T15:27:13;12.33;;;6.93;;
5297;SDS011;14738;42.668;23.250;2023-09-19T15:29:38;7.93;;;7.23;;
5297;SDS011;14738;42.668;23.250;2023-09-19T15:32:04;12.07;;;7.27;;
5297;SDS011;14738;42.668;23.250;2023-09-19T15:34:29;13.33;;;6.40;;
5297;SDS011;14738;42.668;23.250;2023-09-19T15:36:55;8.70;;;7.47;;
5297;SDS011;14738;42.668;23.250;2023-09-19T15:39:21;8.23;;;7.47;;
5297;SDS011;14738;42.668;23.250;2023-09-19T15:41:47;7.90;;;7.30;;
5297;SDS011;14738;42.668;23.250;2023-09-19T15:44:17;6.83;;;5.70;;
5297;SDS011;14738;42.668;23.250;2023-09-19T15:46:44;6.73;;;6.17;;
5297;SDS011;14738;42.668;23.250;2023-09-19T15:49:10;6.80;;;5.53;;
5297;SDS011;14738;42.668;23.250;2023-09-19T15:51:36;6.50;;;5.90;;
5297;SDS011;14738;42.668;23.250;2023-09-19T15:54:13;6.87;;;6.27;;